createdAt,value
2023-05-09T00:01:54.462Z,99.90
2023-05-09T00:04:22.310Z,99.90
2023-05-09T00:06:50.137Z,99.90
2023-05-09T00:09:19.322Z,99.90
2023-05-09T00:11:47.151Z,99.90
2023-05-09T00:14:15.022Z,99.90
2023-05-09T00:16:43.054Z,99.90
2023-05-09T00:19:11.232Z,99.90
2023-05-09T00:21:39.048Z,99.90
2023-05-09T00:24:07.670Z,99.90
2023-05-09T00:26:36.830Z,99.90
2023-05-09T00:29:04.968Z,99.90
2023-05-09T00:31:32.847Z,99.90
2023-05-09T00:34:00.702Z,99.90
2023-05-09T00:36:28.565Z,99.90
2023-05-09T00:38:56.502Z,99.90
2023-05-09T00:41:24.288Z,99.90
2023-05-09T00:43:53.425Z,99.90
2023-05-09T00:46:21.988Z,99.90
2023-05-09T00:48:49.849Z,99.90
2023-05-09T00:51:18.211Z,99.90
2023-05-09T00:53:46.519Z,99.90
2023-05-09T00:56:15.591Z,99.90
2023-05-09T00:58:43.581Z,99.90
2023-05-09T01:01:12.813Z,99.90
2023-05-09T01:03:42.327Z,99.90
2023-05-09T01:06:17.828Z,99.90
2023-05-09T01:08:54.160Z,99.90
2023-05-09T01:11:29.626Z,99.90
2023-05-09T01:14:13.118Z,99.90
2023-05-09T01:16:49.012Z,99.90
2023-05-09T01:19:37.530Z,99.90
2023-05-09T01:22:10.013Z,99.90
2023-05-09T01:25:07.219Z,99.90
2023-05-09T01:27:45.171Z,99.90
2023-05-09T01:30:15.132Z,99.90
2023-05-09T01:32:44.738Z,99.90
2023-05-09T01:35:15.421Z,99.90
2023-05-09T01:37:45.587Z,99.90
2023-05-09T01:40:16.664Z,99.90
2023-05-09T01:42:48.782Z,99.90
2023-05-09T01:45:19.476Z,99.90
2023-05-09T01:47:49.894Z,99.90
2023-05-09T01:50:19.823Z,99.90
2023-05-09T01:52:50.174Z,99.90
2023-05-09T01:55:20.531Z,99.90
2023-05-09T01:57:49.926Z,99.90
2023-05-09T02:00:21.015Z,99.90
2023-05-09T02:02:49.608Z,99.90
2023-05-09T02:05:19.241Z,99.90
2023-05-09T02:07:49.405Z,99.90
2023-05-09T02:10:17.803Z,99.90
2023-05-09T02:12:45.636Z,99.90
2023-05-09T02:15:13.617Z,99.90
2023-05-09T02:17:43.275Z,99.90
2023-05-09T02:20:11.611Z,99.90
2023-05-09T02:22:41.913Z,99.90
2023-05-09T02:25:11.925Z,99.90
2023-05-09T02:27:41.406Z,99.90
2023-05-09T02:30:13.523Z,99.90
2023-05-09T02:32:44.728Z,99.90
2023-05-09T02:35:14.225Z,99.90
2023-05-09T02:37:42.635Z,99.90
2023-05-09T02:40:11.913Z,99.90
2023-05-09T02:42:39.774Z,99.90
2023-05-09T02:45:09.796Z,99.90
2023-05-09T02:47:37.936Z,99.90
2023-05-09T02:50:08.307Z,99.90
2023-05-09T02:52:36.185Z,99.90
2023-05-09T02:55:04.496Z,99.90
2023-05-09T02:57:32.373Z,99.90
2023-05-09T03:00:00.231Z,99.90
2023-05-09T03:02:28.096Z,99.90
2023-05-09T03:04:56.528Z,99.90
2023-05-09T03:07:25.726Z,99.90
2023-05-09T03:09:53.583Z,99.90
2023-05-09T03:12:21.388Z,99.90
2023-05-09T03:14:49.189Z,99.90
2023-05-09T03:17:17.336Z,99.90
2023-05-09T03:19:45.152Z,99.90
2023-05-09T03:22:12.930Z,99.90
2023-05-09T03:24:42.152Z,99.90
2023-05-09T03:27:09.968Z,99.90
2023-05-09T03:29:37.807Z,99.90
2023-05-09T03:32:06.078Z,99.90
2023-05-09T03:34:34.013Z,99.90
2023-05-09T03:37:01.837Z,99.90
2023-05-09T03:39:29.630Z,99.90
2023-05-09T03:41:58.779Z,99.90
2023-05-09T03:44:26.985Z,99.90
2023-05-09T03:46:54.989Z,99.90
2023-05-09T03:49:22.842Z,99.90
2023-05-09T03:51:50.718Z,99.90
2023-05-09T03:54:18.558Z,99.90
2023-05-09T03:56:46.365Z,99.90
2023-05-09T03:59:16.563Z,99.90
2023-05-09T04:01:45.171Z,99.90
2023-05-09T04:04:13.097Z,99.90
2023-05-09T04:06:41.207Z,99.90
2023-05-09T04:09:09.451Z,99.90
2023-05-09T04:11:37.619Z,99.90
2023-05-09T04:14:07.325Z,99.90
2023-05-09T04:16:36.618Z,99.90
2023-05-09T04:19:04.512Z,99.90
2023-05-09T04:21:32.865Z,99.90
2023-05-09T04:24:00.703Z,99.90
2023-05-09T04:26:28.642Z,99.90
2023-05-09T04:28:56.684Z,99.90
2023-05-09T04:31:24.605Z,99.90
2023-05-09T04:33:53.801Z,99.90
2023-05-09T04:36:22.195Z,99.90
2023-05-09T04:38:49.987Z,99.90
2023-05-09T04:41:17.809Z,99.90
2023-05-09T04:43:45.922Z,99.90
2023-05-09T04:46:13.720Z,99.90
2023-05-09T04:48:41.617Z,99.90
2023-05-09T04:51:10.793Z,99.90
2023-05-09T04:53:38.595Z,99.90
2023-05-09T04:56:07.218Z,99.90
2023-05-09T04:58:38.333Z,99.90
2023-05-09T05:01:06.552Z,99.90
2023-05-09T05:03:34.588Z,99.90
2023-05-09T05:06:02.395Z,99.90
2023-05-09T05:08:31.633Z,99.90
2023-05-09T05:10:59.429Z,99.60
2023-05-09T05:13:27.423Z,89.80
2023-05-09T05:15:56.397Z,89.90
2023-05-09T05:18:24.247Z,90.50
2023-05-09T05:20:52.403Z,92.50
2023-05-09T05:23:20.242Z,93.10
2023-05-09T05:25:49.768Z,92.70
2023-05-09T05:28:17.576Z,92.90
2023-05-09T05:30:45.375Z,95.00
2023-05-09T05:33:13.262Z,95.50
2023-05-09T05:35:41.056Z,96.30
2023-05-09T05:38:09.090Z,96.40
2023-05-09T05:40:36.893Z,95.60
2023-05-09T05:43:06.090Z,97.80
2023-05-09T05:45:33.909Z,96.90
2023-05-09T05:48:02.514Z,95.80
2023-05-09T05:50:30.529Z,96.40
2023-05-09T05:52:58.320Z,98.90
2023-05-09T05:55:26.138Z,99.90
2023-05-09T05:57:53.904Z,99.90
2023-05-09T06:00:23.368Z,99.90
2023-05-09T06:02:51.271Z,99.90
2023-05-09T06:05:19.285Z,99.90
2023-05-09T06:07:47.243Z,99.90
2023-05-09T06:10:15.932Z,99.90
2023-05-09T06:12:43.845Z,99.90
2023-05-09T06:15:12.716Z,98.90
2023-05-09T06:17:42.201Z,97.50
2023-05-09T06:20:10.357Z,97.50
2023-05-09T06:22:38.150Z,91.80
2023-05-09T06:25:09.494Z,90.60
2023-05-09T06:27:38.366Z,89.60
2023-05-09T06:30:21.416Z,88.50
2023-05-09T06:32:54.560Z,88.60
2023-05-09T06:35:22.574Z,85.60
2023-05-09T06:37:50.618Z,86.00
2023-05-09T06:40:18.449Z,84.80
2023-05-09T06:42:46.576Z,83.60
2023-05-09T06:45:14.664Z,82.90
2023-05-09T06:47:42.747Z,80.10
2023-05-09T06:50:12.401Z,82.40
2023-05-09T06:52:40.236Z,80.30
2023-05-09T06:55:09.635Z,80.30
2023-05-09T06:57:37.541Z,78.70
2023-05-09T07:00:06.565Z,78.90
2023-05-09T07:02:34.369Z,77.80
2023-05-09T07:05:02.350Z,76.30
2023-05-09T07:07:31.588Z,77.20
2023-05-09T07:10:09.930Z,76.90
2023-05-09T07:12:39.535Z,77.40
2023-05-09T07:15:08.763Z,76.50
2023-05-09T07:17:36.619Z,77.60
2023-05-09T07:20:05.476Z,78.80
2023-05-09T07:22:36.988Z,78.20
2023-05-09T07:25:07.113Z,79.90
2023-05-09T07:27:34.931Z,78.70
2023-05-09T07:30:02.737Z,77.80
2023-05-09T07:32:30.560Z,76.80
2023-05-09T07:34:58.539Z,76.40
2023-05-09T07:37:26.668Z,77.20
2023-05-09T07:39:55.837Z,79.20
2023-05-09T07:42:23.762Z,79.40
2023-05-09T07:44:51.548Z,80.20
2023-05-09T07:47:19.354Z,79.40
2023-05-09T07:49:48.026Z,80.90
2023-05-09T07:52:17.304Z,79.10
2023-05-09T07:54:45.257Z,76.60
2023-05-09T07:57:14.623Z,74.30
2023-05-09T07:59:42.515Z,73.00
2023-05-09T08:02:10.411Z,70.90
2023-05-09T08:04:41.186Z,70.10
2023-05-09T08:07:09.483Z,68.10
2023-05-09T08:09:37.577Z,69.30
2023-05-09T08:12:06.389Z,67.80
2023-05-09T08:14:35.580Z,66.00
2023-05-09T08:17:03.369Z,68.40
2023-05-09T08:19:31.195Z,69.90
2023-05-09T08:21:59.024Z,72.00
2023-05-09T08:24:26.828Z,69.90
2023-05-09T08:26:54.691Z,71.40
2023-05-09T08:29:22.468Z,70.60
2023-05-09T08:31:51.885Z,68.20
2023-05-09T08:34:19.693Z,68.80
2023-05-09T08:36:47.488Z,68.30
2023-05-09T08:39:15.320Z,69.40
2023-05-09T08:41:44.015Z,70.60
2023-05-09T08:44:12.444Z,70.90
2023-05-09T08:46:43.474Z,71.30
2023-05-09T08:49:13.333Z,69.00
2023-05-09T08:51:42.089Z,67.30
2023-05-09T08:54:11.242Z,65.50
2023-05-09T08:56:39.329Z,65.50
2023-05-09T08:59:07.235Z,63.30
2023-05-09T09:01:36.155Z,66.00
2023-05-09T09:04:06.422Z,62.70
2023-05-09T09:06:36.662Z,61.10
2023-05-09T09:09:08.449Z,62.40
2023-05-09T09:11:38.886Z,60.80
2023-05-09T09:14:12.933Z,60.60
2023-05-09T09:16:42.741Z,63.20
2023-05-09T09:19:14.727Z,61.70
2023-05-09T09:21:46.808Z,60.70
2023-05-09T09:24:15.568Z,61.50
2023-05-09T09:26:48.928Z,63.60
2023-05-09T09:29:18.484Z,64.40
2023-05-09T09:31:47.942Z,66.20
2023-05-09T09:34:22.285Z,65.60
2023-05-09T09:36:51.646Z,71.30
2023-05-09T09:39:19.438Z,81.30
2023-05-09T09:41:47.250Z,85.00
2023-05-09T09:44:16.981Z,86.80
2023-05-09T09:46:50.257Z,87.10
2023-05-09T09:49:20.482Z,87.30
2023-05-09T09:51:52.963Z,87.90
2023-05-09T09:54:21.286Z,88.50
2023-05-09T09:56:50.820Z,90.50
2023-05-09T09:59:20.974Z,90.50
2023-05-09T10:02:06.615Z,90.40
2023-05-09T10:04:36.715Z,91.40
2023-05-09T10:07:08.429Z,91.00
2023-05-09T10:09:38.009Z,90.00
2023-05-09T10:12:07.485Z,89.90
2023-05-09T10:14:36.313Z,87.50
2023-05-09T10:17:05.930Z,86.10
2023-05-09T10:19:34.389Z,86.60
2023-05-09T10:22:06.456Z,85.20
2023-05-09T10:24:36.757Z,82.70
2023-05-09T10:27:07.165Z,79.60
2023-05-09T10:29:36.851Z,77.50
2023-05-09T10:32:13.198Z,79.50
2023-05-09T10:34:45.572Z,77.30
2023-05-09T10:37:15.661Z,75.90
2023-05-09T10:39:43.921Z,73.40
2023-05-09T10:42:13.445Z,70.40
2023-05-09T10:44:41.372Z,72.10
2023-05-09T10:47:09.762Z,73.20
2023-05-09T10:49:37.812Z,70.20
2023-05-09T10:52:06.184Z,71.00
2023-05-09T10:54:37.922Z,64.20
2023-05-09T10:57:09.912Z,69.00
2023-05-09T10:59:40.224Z,67.60
2023-05-09T11:02:14.219Z,63.30
2023-05-09T11:04:44.094Z,63.10
2023-05-09T11:07:24.404Z,65.20
2023-05-09T11:09:54.319Z,67.30
2023-05-09T11:12:24.690Z,69.70
2023-05-09T11:14:53.829Z,69.20
2023-05-09T11:17:32.414Z,70.20
2023-05-09T11:20:06.612Z,70.30
2023-05-09T11:22:41.422Z,69.50
2023-05-09T11:25:13.178Z,65.60
2023-05-09T11:27:43.618Z,66.80
2023-05-09T11:30:14.340Z,65.90
2023-05-09T11:32:47.337Z,68.00
2023-05-09T11:35:17.641Z,66.80
2023-05-09T11:37:47.971Z,66.90
2023-05-09T11:40:18.705Z,69.00
2023-05-09T11:42:48.299Z,67.80
2023-05-09T11:45:17.889Z,67.90
2023-05-09T11:47:46.847Z,69.30
2023-05-09T11:50:16.177Z,68.20
2023-05-09T11:52:44.413Z,68.30
2023-05-09T11:55:14.125Z,68.50
2023-05-09T11:57:46.202Z,67.20
2023-05-09T12:00:16.378Z,69.80
2023-05-09T12:02:45.825Z,67.50
2023-05-09T12:05:16.013Z,66.60
2023-05-09T12:07:44.620Z,67.70
2023-05-09T12:10:14.365Z,66.80
2023-05-09T12:12:48.794Z,66.60
2023-05-09T12:15:18.097Z,67.20
2023-05-09T12:17:48.272Z,66.10
2023-05-09T12:20:18.357Z,66.10
2023-05-09T12:22:46.269Z,66.80
2023-05-09T12:25:14.283Z,67.90
2023-05-09T12:27:43.211Z,66.80
2023-05-09T12:30:15.993Z,64.20
2023-05-09T12:32:44.289Z,64.50
2023-05-09T12:35:12.387Z,64.20
2023-05-09T12:37:40.303Z,63.40
2023-05-09T12:40:12.477Z,62.40
2023-05-09T12:42:40.908Z,62.20
2023-05-09T12:45:10.643Z,61.60
2023-05-09T12:47:41.780Z,59.10
2023-05-09T12:50:13.161Z,60.40
2023-05-09T12:52:54.669Z,60.80
2023-05-09T12:55:31.658Z,60.10
2023-05-09T12:58:01.390Z,61.90
2023-05-09T13:00:29.405Z,60.40
2023-05-09T13:02:59.414Z,61.30
2023-05-09T13:05:27.321Z,60.00
2023-05-09T13:07:58.216Z,59.30
2023-05-09T13:10:28.515Z,60.90
2023-05-09T13:12:56.411Z,59.90
2023-05-09T13:15:26.729Z,60.20
2023-05-09T13:17:55.444Z,61.20
2023-05-09T13:20:24.725Z,59.80
2023-05-09T13:22:52.520Z,61.10
2023-05-09T13:25:20.470Z,60.70
2023-05-09T13:27:48.315Z,59.00
2023-05-09T13:30:16.807Z,58.00
2023-05-09T13:32:44.869Z,58.60
2023-05-09T13:35:12.875Z,60.00
2023-05-09T13:37:42.068Z,60.30
2023-05-09T13:40:11.110Z,61.20
2023-05-09T13:42:40.032Z,62.70
2023-05-09T13:45:09.313Z,62.60
2023-05-09T13:47:38.755Z,63.00
2023-05-09T13:50:08.310Z,62.00
2023-05-09T13:52:36.177Z,61.40
2023-05-09T13:55:06.013Z,63.20
2023-05-09T13:57:33.824Z,62.00
2023-05-09T14:00:01.661Z,60.10
2023-05-09T14:02:29.593Z,60.50
2023-05-09T14:04:58.873Z,60.50
2023-05-09T14:07:26.709Z,60.90
2023-05-09T14:10:08.199Z,61.30
2023-05-09T14:12:44.080Z,61.70
2023-05-09T14:15:12.324Z,63.30
2023-05-09T14:17:40.829Z,64.40
2023-05-09T14:20:09.778Z,63.50
2023-05-09T14:22:37.692Z,63.50
2023-05-09T14:25:06.136Z,63.90
2023-05-09T14:27:36.793Z,63.20
2023-05-09T14:30:06.885Z,62.60
2023-05-09T14:32:34.778Z,60.00
2023-05-09T14:35:02.765Z,59.80
2023-05-09T14:37:30.711Z,60.80
2023-05-09T14:40:05.254Z,58.60
2023-05-09T14:42:33.148Z,59.40
2023-05-09T14:45:01.068Z,59.40
2023-05-09T14:47:30.253Z,58.30
2023-05-09T14:49:58.438Z,58.60
2023-05-09T14:52:26.310Z,60.20
2023-05-09T14:54:54.124Z,58.50
2023-05-09T14:57:22.210Z,60.00
2023-05-09T14:59:50.030Z,57.80
2023-05-09T15:02:17.874Z,60.30
2023-05-09T15:04:47.056Z,62.20
2023-05-09T15:07:14.842Z,58.80
2023-05-09T15:09:42.716Z,60.50
2023-05-09T15:12:11.137Z,62.70
2023-05-09T15:14:39.519Z,62.80
2023-05-09T15:17:07.879Z,61.20
2023-05-09T15:19:36.455Z,60.80
2023-05-09T15:22:06.108Z,60.80
2023-05-09T15:24:33.941Z,60.10
2023-05-09T15:27:02.383Z,60.80
2023-05-09T15:29:30.212Z,63.10
2023-05-09T15:31:58.011Z,61.60
2023-05-09T15:34:25.918Z,61.50
2023-05-09T15:36:53.743Z,62.60
2023-05-09T15:39:22.925Z,63.50
2023-05-09T15:41:50.724Z,63.30
2023-05-09T15:44:18.548Z,62.70
2023-05-09T15:46:46.392Z,62.40
2023-05-09T15:49:14.201Z,62.60
2023-05-09T15:51:42.252Z,62.20
2023-05-09T15:54:10.135Z,62.90
2023-05-09T15:56:39.304Z,61.40
2023-05-09T15:59:07.298Z,61.50
2023-05-09T16:01:35.447Z,62.10
2023-05-09T16:04:03.419Z,63.40
2023-05-09T16:06:32.883Z,61.50
2023-05-09T16:09:02.201Z,61.70
2023-05-09T16:11:30.156Z,62.00
2023-05-09T16:13:59.698Z,62.10
2023-05-09T16:16:27.633Z,63.70
2023-05-09T16:18:55.552Z,63.50
2023-05-09T16:21:26.342Z,64.50
2023-05-09T16:23:54.176Z,65.10
2023-05-09T16:26:22.595Z,65.50
2023-05-09T16:28:50.506Z,67.20
2023-05-09T16:31:19.937Z,67.90
2023-05-09T16:33:47.929Z,69.80
2023-05-09T16:36:15.756Z,70.30
2023-05-09T16:38:43.547Z,73.60
2023-05-09T16:41:11.387Z,73.40
2023-05-09T16:43:40.164Z,73.60
2023-05-09T16:46:08.136Z,75.70
2023-05-09T16:48:37.397Z,77.50
2023-05-09T16:51:05.389Z,77.30
2023-05-09T16:53:33.216Z,77.90
2023-05-09T16:56:01.057Z,74.90
2023-05-09T16:58:28.981Z,75.50
2023-05-09T17:00:57.130Z,75.80
2023-05-09T17:03:25.131Z,76.90
2023-05-09T17:05:54.386Z,76.90
2023-05-09T17:08:22.807Z,76.50
2023-05-09T17:10:50.826Z,75.60
2023-05-09T17:13:18.702Z,74.70
2023-05-09T17:15:46.550Z,72.70
2023-05-09T17:18:22.048Z,72.50
2023-05-09T17:20:58.773Z,73.00
2023-05-09T17:23:26.785Z,74.00
2023-05-09T17:25:54.592Z,73.30
2023-05-09T17:28:22.457Z,75.70
2023-05-09T17:30:50.624Z,76.50
2023-05-09T17:33:19.300Z,78.10
2023-05-09T17:35:49.369Z,77.70
2023-05-09T17:38:18.700Z,78.10
2023-05-09T17:40:46.690Z,77.50
2023-05-09T17:43:14.515Z,78.30
2023-05-09T17:45:42.341Z,77.80
2023-05-09T17:48:10.337Z,79.00
2023-05-09T17:50:38.236Z,79.90
2023-05-09T17:53:08.478Z,79.70
2023-05-09T17:55:37.658Z,79.60
2023-05-09T17:58:06.838Z,80.40
2023-05-09T18:00:34.822Z,80.30
2023-05-09T18:03:04.016Z,81.20
2023-05-09T18:05:32.022Z,81.40
2023-05-09T18:08:01.091Z,83.20
2023-05-09T18:10:29.303Z,84.20
2023-05-09T18:12:58.466Z,85.30
2023-05-09T18:15:26.566Z,86.10
2023-05-09T18:17:54.864Z,86.10
2023-05-09T18:20:22.830Z,88.00
2023-05-09T18:22:50.692Z,87.60
2023-05-09T18:25:19.518Z,88.30
2023-05-09T18:27:47.353Z,89.60
2023-05-09T18:30:17.325Z,91.90
2023-05-09T18:32:45.369Z,92.00
2023-05-09T18:35:13.213Z,92.40
2023-05-09T18:37:41.826Z,93.20
2023-05-09T18:40:15.155Z,93.10
2023-05-09T18:42:43.515Z,93.90
2023-05-09T18:45:11.982Z,96.30
2023-05-09T18:47:41.160Z,97.50
2023-05-09T18:50:09.935Z,98.60
2023-05-09T18:52:37.849Z,98.50
2023-05-09T18:55:06.865Z,98.60
2023-05-09T18:57:34.799Z,98.10
2023-05-09T19:00:03.518Z,99.20
2023-05-09T19:02:31.731Z,99.70
2023-05-09T19:05:05.618Z,99.40
2023-05-09T19:07:34.163Z,99.90
2023-05-09T19:10:03.853Z,99.70
2023-05-09T19:12:32.327Z,99.30
2023-05-09T19:15:00.314Z,99.90
2023-05-09T19:17:28.207Z,99.40
2023-05-09T19:19:56.221Z,99.40
2023-05-09T19:22:25.390Z,99.90
2023-05-09T19:24:53.179Z,99.90
2023-05-09T19:27:21.021Z,99.20
2023-05-09T19:29:49.949Z,98.60
2023-05-09T19:32:18.467Z,99.40
2023-05-09T19:34:46.278Z,99.90
2023-05-09T19:37:14.093Z,99.90
2023-05-09T19:39:43.257Z,99.90
2023-05-09T19:42:11.254Z,99.90
2023-05-09T19:44:40.391Z,99.90
2023-05-09T19:47:09.047Z,99.90
2023-05-09T19:49:36.922Z,99.90
2023-05-09T19:52:04.915Z,99.90
2023-05-09T19:54:32.762Z,99.90
2023-05-09T19:57:01.929Z,99.90
2023-05-09T19:59:30.697Z,99.90
2023-05-09T20:01:58.755Z,99.90
2023-05-09T20:04:26.610Z,99.90
2023-05-09T20:06:54.454Z,99.90
2023-05-09T20:09:22.266Z,99.90
2023-05-09T20:11:50.504Z,99.90
2023-05-09T20:14:19.712Z,99.90
2023-05-09T20:16:47.533Z,99.90
2023-05-09T20:19:15.996Z,99.90
2023-05-09T20:21:43.827Z,99.90
2023-05-09T20:24:11.853Z,99.90
2023-05-09T20:26:39.707Z,99.90
2023-05-09T20:29:07.728Z,99.90
2023-05-09T20:31:36.935Z,99.90
2023-05-09T20:34:04.900Z,99.90
2023-05-09T20:36:32.733Z,99.90
2023-05-09T20:39:00.649Z,99.90
2023-05-09T20:41:28.470Z,99.90
2023-05-09T20:44:03.350Z,99.90
2023-05-09T20:46:31.481Z,99.40
2023-05-09T20:49:00.737Z,98.70
2023-05-09T20:51:28.534Z,97.50
2023-05-09T20:53:56.382Z,97.00
2023-05-09T20:56:26.280Z,97.40
2023-05-09T20:58:54.135Z,96.90
2023-05-09T21:01:22.380Z,96.50
2023-05-09T21:03:50.286Z,96.50
2023-05-09T21:06:19.470Z,96.30
2023-05-09T21:08:47.268Z,96.20
2023-05-09T21:11:15.152Z,96.80
2023-05-09T21:13:42.957Z,97.00
2023-05-09T21:16:10.923Z,96.30
2023-05-09T21:18:38.740Z,96.40
2023-05-09T21:21:08.041Z,96.40
2023-05-09T21:23:37.243Z,94.80
2023-05-09T21:26:05.153Z,93.40
2023-05-09T21:28:33.079Z,93.20
2023-05-09T21:31:01.637Z,93.40
2023-05-09T21:33:29.604Z,93.60
2023-05-09T21:35:58.599Z,94.60
2023-05-09T21:38:26.459Z,95.20
2023-05-09T21:40:55.659Z,95.50
2023-05-09T21:43:23.501Z,96.30
2023-05-09T21:45:51.316Z,95.50
2023-05-09T21:48:19.188Z,95.70
2023-05-09T21:50:47.023Z,95.60
2023-05-09T21:53:15.226Z,96.10
2023-05-09T21:55:43.013Z,95.80
2023-05-09T21:58:12.242Z,95.80
2023-05-09T22:00:40.237Z,94.60
2023-05-09T22:03:08.478Z,93.90
2023-05-09T22:05:36.530Z,93.40
2023-05-09T22:08:04.529Z,93.40
2023-05-09T22:10:32.427Z,93.30
2023-05-09T22:13:00.284Z,93.30
2023-05-09T22:15:29.493Z,92.90
2023-05-09T22:17:57.389Z,93.00
2023-05-09T22:20:25.547Z,93.10
2023-05-09T22:22:53.350Z,93.60
2023-05-09T22:25:21.171Z,93.70
2023-05-09T22:27:48.975Z,94.00
2023-05-09T22:30:16.958Z,94.30
2023-05-09T22:32:46.497Z,95.10
2023-05-09T22:35:14.372Z,95.30
2023-05-09T22:37:42.368Z,95.80
2023-05-09T22:40:11.016Z,96.50
2023-05-09T22:42:38.886Z,96.90
2023-05-09T22:45:07.930Z,97.50
2023-05-09T22:47:35.872Z,97.50
2023-05-09T22:50:05.394Z,98.30
2023-05-09T22:52:33.220Z,98.20
2023-05-09T22:55:01.055Z,98.70
2023-05-09T22:57:28.880Z,99.30
2023-05-09T22:59:56.714Z,99.40
2023-05-09T23:02:24.710Z,99.90
2023-05-09T23:04:52.655Z,99.90
2023-05-09T23:07:21.905Z,99.90
2023-05-09T23:09:49.728Z,99.90
2023-05-09T23:12:17.610Z,99.90
2023-05-09T23:14:45.519Z,99.90
2023-05-09T23:17:13.409Z,99.90
2023-05-09T23:19:41.300Z,99.90
2023-05-09T23:22:09.166Z,99.90
2023-05-09T23:24:38.566Z,99.90
2023-05-09T23:27:06.413Z,99.90
2023-05-09T23:29:34.259Z,99.90
2023-05-09T23:32:02.081Z,99.90
2023-05-09T23:34:30.758Z,99.90
2023-05-09T23:36:58.572Z,99.90
2023-05-09T23:39:26.858Z,99.90
2023-05-09T23:41:56.372Z,99.90
2023-05-09T23:44:24.194Z,99.90
2023-05-09T23:46:52.335Z,99.90
2023-05-09T23:49:20.660Z,99.90
2023-05-09T23:51:48.712Z,99.90
2023-05-09T23:54:17.104Z,99.90
2023-05-09T23:56:44.890Z,99.90
2023-05-09T23:59:14.049Z,99.90
